Boley, Oklahoma
Current Conditions -  °F | °C
As of 12:35 PM on Thursday 27 Nov 2014 (Local Time) from KCQB Reporting Station
Clear Clear  
Wind Chill:   Ceiling: Unl
Heat Index:   Visibility: 10mi
Dew Point: -1°   Wind: 7mph
Humidity: 53%   Direction: 160°SSE
Pressure: 30.5"   Gusts: NA
Location:  35.49°N, 96.48°W
Report Text: KCQB 271835Z AUTO 16006KT 10SM CLR 08/M01 A3050 RMK AO2
Loading
Personal Weather Stations






























Interactive Weather Map New forecast layout! Learn more

10-Day Weather Forecast

Advertisements
Track Severe Weather on mobile